Time;durP1;ratioP1;P1;durP2;ratioP2;P2;SDS_P1;SDS_P2;PMS_P1;PMS_P2;Temp;Humidity;BMP_temperature;BMP_pressure;BME280_temperature;BME280_humidity;BME280_pressure;Samples;Min_cycle;Max_cycle;Signal;HPM_P1;HPM_P2
2022/08/07 00:01:13;;;;;;;8.27;4.00;;;;;;;7.48;100.00;102435.22;4988159;28;20073;-76
2022/08/07 00:03:39;;;;;;;9.45;3.42;;;;;;;7.44;100.00;102430.25;5022089;28;20107;-76
2022/08/07 00:06:05;;;;;;;9.23;3.78;;;;;;;7.41;100.00;102425.09;5012869;28;20523;-77
2022/08/07 00:08:31;;;;;;;11.55;4.18;;;;;;;7.32;100.00;102415.94;5015740;28;20079;-76
2022/08/07 00:10:57;;;;;;;11.18;5.28;;;;;;;7.34;100.00;102419.38;5025439;28;20029;-77
2022/08/07 00:13:23;;;;;;;11.10;4.88;;;;;;;7.26;100.00;102424.44;5014047;28;20471;-77
2022/08/07 00:15:50;;;;;;;12.43;4.78;;;;;;;7.20;100.00;102424.91;5020683;28;20060;-76
2022/08/07 00:18:17;;;;;;;13.75;5.47;;;;;;;7.19;100.00;102421.34;5020646;28;20033;-76
2022/08/07 00:20:43;;;;;;;13.45;4.93;;;;;;;7.20;100.00;102416.88;5016833;28;20029;-77
2022/08/07 00:23:08;;;;;;;19.95;7.93;;;;;;;7.01;100.00;102391.47;5007020;28;20040;-77
2022/08/07 00:25:35;;;;;;;15.10;6.35;;;;;;;7.11;100.00;102410.34;5018889;28;20026;-77
2022/08/07 00:28:01;;;;;;;18.75;7.97;;;;;;;7.15;100.00;102411.84;4996843;28;20495;-77
2022/08/07 00:30:29;;;;;;;18.95;9.55;;;;;;;7.18;100.00;102414.28;5014328;28;20160;-76
2022/08/07 00:32:56;;;;;;;14.30;6.93;;;;;;;7.22;100.00;102412.22;4988334;28;20026;-76
2022/08/07 00:35:22;;;;;;;14.20;6.55;;;;;;;7.17;100.00;102404.56;5020138;28;20043;-78
2022/08/07 00:37:48;;;;;;;13.60;5.82;;;;;;;7.16;100.00;102405.53;5020586;28;20068;-76
2022/08/07 00:40:14;;;;;;;17.90;5.90;;;;;;;7.12;100.00;102408.53;5036901;28;20069;-77
2022/08/07 00:42:43;;;;;;;17.70;5.93;;;;;;;6.97;100.00;102411.38;5017187;28;20434;-77
2022/08/07 00:45:10;;;;;;;15.45;5.43;;;;;;;6.84;100.00;102410.56;5016509;28;20116;-77
2022/08/07 00:47:36;;;;;;;13.13;5.72;;;;;;;6.69;100.00;102395.63;5015557;28;20025;-76
2022/08/07 00:50:02;;;;;;;14.55;5.72;;;;;;;6.70;100.00;102405.38;5002047;28;20037;-76
2022/08/07 00:52:28;;;;;;;15.07;6.18;;;;;;;6.75;100.00;102413.91;5009110;28;20033;-76
2022/08/07 00:54:53;;;;;;;13.20;5.30;;;;;;;6.80;100.00;102409.06;4984919;28;20459;-76
2022/08/07 00:57:21;;;;;;;11.77;5.97;;;;;;;6.84;100.00;102410.56;5005812;28;20040;-76
2022/08/07 00:59:46;;;;;;;14.18;5.63;;;;;;;6.87;100.00;102414.81;5018307;28;20061;-76
2022/08/07 01:02:12;;;;;;;12.82;5.60;;;;;;;6.88;100.00;102409.38;5003298;28;21632;-76
2022/08/07 01:04:38;;;;;;;15.43;5.75;;;;;;;6.89;100.00;102403.06;5014161;28;20386;-76
2022/08/07 01:07:04;;;;;;;14.40;5.45;;;;;;;6.44;100.00;102327.91;4984764;28;20040;-77
2022/08/07 01:09:31;;;;;;;16.48;4.93;;;;;;;6.92;100.00;102405.50;5010063;28;20037;-77
2022/08/07 01:11:57;;;;;;;13.43;4.80;;;;;;;6.90;100.00;102398.56;5021211;28;20494;-77
2022/08/07 01:14:23;;;;;;;15.55;4.78;;;;;;;6.86;100.00;102399.75;5009421;28;20037;-77
2022/08/07 01:16:50;;;;;;;9.98;4.20;;;;;;;6.79;100.00;102402.84;5007635;28;20514;-76
2022/08/07 01:19:18;;;;;;;8.50;4.00;;;;;;;6.60;100.00;102402.47;5011844;28;20033;-76
2022/08/07 01:21:45;;;;;;;8.45;3.47;;;;;;;6.38;100.00;102395.16;5024046;28;20109;-77
2022/08/07 01:24:11;;;;;;;10.55;4.22;;;;;;;6.28;100.00;102402.94;5010327;28;20041;-76
2022/08/07 01:26:37;;;;;;;14.70;4.57;;;;;;;6.30;100.00;102394.84;5017656;28;20034;-76
2022/08/07 01:29:03;;;;;;;12.30;4.55;;;;;;;6.39;100.00;102388.81;5043596;28;20031;-76
2022/08/07 01:31:32;;;;;;;11.07;5.38;;;;;;;6.39;100.00;102395.03;4998769;28;20026;-76
2022/08/07 01:33:59;;;;;;;12.32;4.95;;;;;;;6.33;100.00;102387.44;4998491;28;20606;-76
2022/08/07 01:36:25;;;;;;;11.75;4.95;;;;;;;6.29;100.00;102385.09;4997506;28;20044;-76
2022/08/07 01:38:51;;;;;;;12.05;4.78;;;;;;;6.16;100.00;102372.59;5030016;28;20111;-76
2022/08/07 01:41:18;;;;;;;11.45;4.28;;;;;;;6.26;100.00;102383.50;5019707;28;20065;-76
2022/08/07 01:43:46;;;;;;;12.23;4.68;;;;;;;6.26;100.00;102393.31;5023428;28;20036;-76
2022/08/07 01:46:13;;;;;;;14.68;5.18;;;;;;;6.21;100.00;102390.13;5006663;28;20041;-76
2022/08/07 01:48:43;;;;;;;11.70;4.53;;;;;;;6.18;100.00;102376.97;5024356;28;20055;-76
2022/08/07 01:51:13;;;;;;;14.25;4.90;;;;;;;6.15;100.00;102373.56;5011721;28;20368;-76
2022/08/07 01:53:44;;;;;;;14.73;5.45;;;;;;;6.29;100.00;102380.59;4997678;28;20045;-77
2022/08/07 01:56:22;;;;;;;12.55;4.70;;;;;;;6.26;100.00;102369.28;5022763;28;20029;-77
2022/08/07 01:58:51;;;;;;;10.32;5.15;;;;;;;6.48;100.00;102381.97;5018831;28;20591;-76
2022/08/07 02:01:25;;;;;;;17.65;5.90;;;;;;;6.57;100.00;102382.16;5058639;28;20067;-76
2022/08/07 02:04:02;;;;;;;12.52;5.70;;;;;;;6.67;100.00;102389.50;4996980;28;20064;-76
2022/08/07 02:06:34;;;;;;;11.13;4.90;;;;;;;6.59;100.00;102384.75;5001307;28;20078;-76
2022/08/07 02:09:04;;;;;;;15.85;5.85;;;;;;;6.51;100.00;102382.63;5015513;28;20472;-76
2022/08/07 02:11:32;;;;;;;9.80;4.88;;;;;;;6.45;100.00;102380.38;5006020;28;20136;-77
2022/08/07 02:13:59;;;;;;;13.35;5.28;;;;;;;6.42;100.00;102375.25;5007167;28;20038;-76
2022/08/07 02:16:25;;;;;;;11.75;4.70;;;;;;;6.39;100.00;102373.66;5010162;28;20561;-77
2022/08/07 02:19:12;;;;;;;15.68;5.28;;;;;;;6.35;100.00;102372.16;5010238;28;20189;-77
2022/08/07 02:21:39;;;;;;;14.57;5.57;;;;;;;6.41;100.00;102373.56;5008675;28;20530;-77
2022/08/07 02:24:12;;;;;;;20.40;5.78;;;;;;;6.50;100.00;102378.22;4989735;28;20030;-76
2022/08/07 02:26:38;;;;;;;30.35;6.90;;;;;;;6.53;100.00;102375.31;5017552;28;20474;-76
2022/08/07 02:29:06;;;;;;;18.17;6.22;;;;;;;6.39;100.00;102351.41;4991139;28;20390;-76
2022/08/07 02:31:35;;;;;;;15.05;5.45;;;;;;;6.51;100.00;102361.25;5007546;28;20037;-77
2022/08/07 02:34:04;;;;;;;19.63;7.10;;;;;;;6.43;100.00;102355.59;5024603;28;20430;-77
2022/08/07 02:36:33;;;;;;;19.17;6.32;;;;;;;6.45;100.00;102372.34;5017345;28;20518;-77
2022/08/07 02:39:00;;;;;;;17.00;6.07;;;;;;;6.35;100.00;102369.50;5002902;28;21489;-76
2022/08/07 02:41:30;;;;;;;16.33;6.10;;;;;;;6.22;100.00;102359.75;5017656;28;20029;-76
2022/08/07 02:44:00;;;;;;;16.40;6.45;;;;;;;6.19;100.00;102370.66;4992100;28;20480;-77
2022/08/07 02:46:26;;;;;;;15.57;6.57;;;;;;;6.01;100.00;102346.97;5016930;28;20051;-76
2022/08/07 02:48:52;;;;;;;16.40;6.05;;;;;;;6.02;100.00;102367.38;5004141;28;20041;-76
2022/08/07 02:51:19;;;;;;;16.95;6.60;;;;;;;5.96;100.00;102377.63;4990990;28;20088;-77
2022/08/07 02:53:52;;;;;;;17.52;6.13;;;;;;;6.01;100.00;102371.00;5017596;28;20037;-76
2022/08/07 02:56:20;;;;;;;17.52;5.93;;;;;;;6.23;100.00;102359.66;4990669;28;20034;-77
2022/08/07 02:58:45;;;;;;;10.93;4.88;;;;;;;6.43;100.00;102365.41;5007098;28;20048;-76
2022/08/07 03:01:11;;;;;;;12.45;5.20;;;;;;;6.60;100.00;102365.06;4980035;28;20037;-76
2022/08/07 03:03:38;;;;;;;17.77;5.55;;;;;;;6.64;100.00;102361.19;5023669;28;20041;-76
2022/08/07 03:06:03;;;;;;;15.23;5.28;;;;;;;6.73;100.00;102360.53;5005043;28;20048;-76
2022/08/07 03:08:30;;;;;;;12.98;5.25;;;;;;;6.75;100.00;102360.44;4997425;28;20034;-77
2022/08/07 03:10:56;;;;;;;13.80;5.57;;;;;;;6.84;100.00;102367.78;4988579;28;20037;-76
2022/08/07 03:13:21;;;;;;;18.85;6.00;;;;;;;6.86;100.00;102356.97;4992761;28;20080;-77
2022/08/07 03:15:47;;;;;;;22.08;6.70;;;;;;;6.95;100.00;102364.31;4973837;28;20743;-77
2022/08/07 03:18:14;;;;;;;26.50;6.68;;;;;;;6.89;100.00;102340.72;5009827;28;20092;-77
2022/08/07 03:20:40;;;;;;;29.08;6.57;;;;;;;7.10;100.00;102362.34;4992870;28;20155;-76
2022/08/07 03:23:07;;;;;;;20.98;6.07;;;;;;;7.12;100.00;102355.91;5009103;28;20026;-76
2022/08/07 03:25:35;;;;;;;27.95;6.03;;;;;;;7.25;100.00;102350.47;5028199;28;20037;-77
2022/08/07 03:28:03;;;;;;;29.48;6.55;;;;;;;7.36;100.00;102357.72;5007340;28;20076;-76
2022/08/07 03:30:31;;;;;;;39.58;7.20;;;;;;;7.46;100.00;102351.56;5022177;28;20025;-76
2022/08/07 03:32:58;;;;;;;36.60;7.72;;;;;;;7.50;100.00;102336.09;5020269;28;20511;-76
2022/08/07 03:35:26;;;;;;;36.30;7.68;;;;;;;7.63;100.00;102344.91;5021308;28;20038;-76
2022/08/07 03:37:56;;;;;;;54.65;7.72;;;;;;;7.75;100.00;102343.09;5002540;28;20045;-77
2022/08/07 03:40:22;;;;;;;37.13;7.78;;;;;;;7.82;100.00;102338.97;4995157;28;20403;-77
2022/08/07 03:42:52;;;;;;;55.78;8.68;;;;;;;7.93;100.00;102341.66;5003994;28;20038;-76
2022/08/07 03:45:19;;;;;;;40.33;8.20;;;;;;;8.00;100.00;102342.03;4973584;28;20079;-76
2022/08/07 03:47:45;;;;;;;31.33;8.52;;;;;;;8.07;100.00;102334.38;4989484;28;20039;-77
2022/08/07 03:50:11;;;;;;;30.48;7.68;;;;;;;8.05;100.00;102317.59;4996264;28;20040;-76
2022/08/07 03:52:37;;;;;;;40.45;9.07;;;;;;;8.21;100.00;102335.97;5022151;28;20455;-77
2022/08/07 03:55:04;;;;;;;28.10;6.68;;;;;;;8.26;100.00;102342.69;5007580;28;20041;-77
2022/08/07 03:57:31;;;;;;;32.72;7.72;;;;;;;8.26;100.00;102342.69;4987674;28;20415;-77
2022/08/07 04:00:00;;;;;;;30.83;7.05;;;;;;;8.26;100.00;102342.69;5045561;28;20033;-77
2022/08/07 04:02:27;;;;;;;26.25;7.45;;;;;;;8.25;100.00;102330.22;5000633;28;20037;-77
2022/08/07 04:04:52;;;;;;;32.22;6.88;;;;;;;8.19;100.00;102328.06;5016435;28;20022;-77
2022/08/07 04:07:19;;;;;;;21.52;7.65;;;;;;;8.21;100.00;102334.16;4987796;28;20034;-77
2022/08/07 04:09:45;;;;;;;26.20;8.15;;;;;;;8.22;100.00;102335.84;5019717;28;20037;-76
2022/08/07 04:12:12;;;;;;;22.75;6.78;;;;;;;8.16;100.00;102322.94;4998935;28;20079;-76
2022/08/07 04:14:38;;;;;;;26.08;6.25;;;;;;;8.20;100.00;102329.75;5004844;28;20096;-77
2022/08/07 04:17:04;;;;;;;27.25;6.68;;;;;;;8.20;100.00;102326.22;4999045;28;20036;-76
2022/08/07 04:19:30;;;;;;;17.00;6.20;;;;;;;8.27;100.00;102333.66;5004496;28;20065;-77
2022/08/07 04:21:55;;;;;;;16.98;6.03;;;;;;;8.30;100.00;102327.19;5020303;28;20467;-77
2022/08/07 04:24:21;;;;;;;24.20;6.30;;;;;;;8.32;100.00;102314.53;5013836;28;20468;-76
2022/08/07 04:26:47;;;;;;;16.30;5.63;;;;;;;8.36;100.00;102332.06;5011694;28;20033;-77
2022/08/07 04:29:13;;;;;;;21.27;5.97;;;;;;;8.38;100.00;102335.47;4981104;28;20038;-77
2022/08/07 04:31:39;;;;;;;22.10;5.75;;;;;;;8.46;100.00;102333.06;5006742;28;20033;-77
2022/08/07 04:34:06;;;;;;;17.35;4.78;;;;;;;8.51;100.00;102327.34;5005980;28;20032;-76
2022/08/07 04:36:33;;;;;;;17.27;5.03;;;;;;;8.44;100.00;102316.28;5046282;28;20479;-76
2022/08/07 04:38:59;;;;;;;12.80;4.90;;;;;;;8.57;100.00;102326.81;5006018;28;20037;-77
2022/08/07 04:41:25;;;;;;;11.93;5.03;;;;;;;8.63;100.00;102333.56;4982526;28;20049;-76
2022/08/07 04:43:52;;;;;;;15.93;4.93;;;;;;;8.69;100.00;102327.69;5002956;28;20030;-76
2022/08/07 04:46:44;;;;;;;15.18;4.43;;;;;;;8.74;100.00;102328.16;5019973;28;20029;-77
2022/08/07 04:49:37;;;;;;;14.07;4.45;;;;;;;8.76;100.00;102321.69;4989156;28;20076;-77
2022/08/07 04:52:11;;;;;;;12.38;3.92;;;;;;;8.75;100.00;102316.44;4999611;28;20033;-77
2022/08/07 04:54:46;;;;;;;;;;;;;;;8.75;100.00;102319.13;5007522;28;20076;-77
2022/08/07 04:57:16;;;;;;;8.07;3.35;;;;;;;8.76;100.00;102324.38;5005400;28;19921;-76
2022/08/07 04:59:50;;;;;;;6.78;3.22;;;;;;;8.82;100.00;102325.69;5002604;28;20048;-76
2022/08/07 05:02:28;;;;;;;8.48;3.20;;;;;;;8.83;100.00;102322.03;5018118;28;20052;-76
2022/08/07 05:05:06;;;;;;;7.35;3.25;;;;;;;8.48;100.00;102276.66;5043793;28;20100;-77
2022/08/07 05:07:36;;;;;;;10.05;3.10;;;;;;;8.74;100.00;102328.16;5027267;28;20045;-76
2022/08/07 05:10:09;;;;;;;7.60;3.28;;;;;;;8.52;100.00;102288.81;5012522;28;20037;-77
2022/08/07 05:12:38;;;;;;;9.45;3.40;;;;;;;8.66;100.00;102320.72;5047080;28;20044;-77
2022/08/07 05:15:16;;;;;;;6.90;3.22;;;;;;;8.70;100.00;102324.00;5018860;28;20978;-77
2022/08/07 05:17:47;;;;;;;6.78;3.38;;;;;;;8.72;100.00;102327.41;5003105;28;20034;-76
2022/08/07 05:20:15;;;;;;;11.93;3.10;;;;;;;8.66;100.00;102318.06;5034207;28;20128;-76
2022/08/07 05:22:43;;;;;;;9.13;3.30;;;;;;;8.68;100.00;102331.31;4988366;28;20041;-76
2022/08/07 05:25:11;;;;;;;5.43;2.97;;;;;;;8.69;100.00;102336.56;4990435;28;20037;-76
2022/08/07 05:27:37;;;;;;;8.90;2.85;;;;;;;8.75;100.00;102335.22;4988906;28;20045;-78
2022/08/07 05:30:04;;;;;;;9.13;3.60;;;;;;;8.87;100.00;102336.06;5020688;28;20030;-77
2022/08/07 05:32:30;;;;;;;7.57;3.03;;;;;;;8.93;100.00;102335.53;5013821;28;20120;-76
2022/08/07 05:34:57;;;;;;;7.43;3.10;;;;;;;8.94;100.00;102329.19;5004717;28;20034;-77
2022/08/07 05:37:25;;;;;;;9.60;3.75;;;;;;;8.98;100.00;102330.66;4990409;28;20475;-76
2022/08/07 05:39:51;;;;;;;7.82;3.63;;;;;;;9.01;100.00;102327.72;5005086;28;20048;-76
2022/08/07 05:42:16;;;;;;;8.40;3.13;;;;;;;9.03;100.00;102323.91;4986333;28;20038;-77
2022/08/07 05:44:42;;;;;;;14.77;4.05;;;;;;;9.17;100.00;102327.28;5005436;28;20386;-77
2022/08/07 05:47:08;;;;;;;6.43;3.35;;;;;;;9.19;100.00;102323.50;5008007;28;20137;-77
2022/08/07 05:49:34;;;;;;;12.20;3.47;;;;;;;9.23;100.00;102334.81;5019430;28;20103;-76
2022/08/07 05:51:59;;;;;;;12.65;3.63;;;;;;;9.25;100.00;102341.75;5006901;28;20084;-78
2022/08/07 05:54:25;;;;;;;6.95;3.55;;;;;;;9.29;100.00;102342.38;5018504;28;20038;-76
2022/08/07 05:56:53;;;;;;;8.98;3.20;;;;;;;9.36;100.00;102338.16;5013751;28;20063;-76
2022/08/07 05:59:20;;;;;;;7.88;3.28;;;;;;;9.12;100.00;102284.72;5005617;28;20050;-76
2022/08/07 06:01:45;;;;;;;9.88;3.25;;;;;;;9.48;100.00;102336.28;5015961;28;20068;-76
2022/08/07 06:04:14;;;;;;;6.47;3.22;;;;;;;9.53;100.00;102343.97;5008986;28;20037;-76
2022/08/07 06:06:40;;;;;;;9.05;3.00;;;;;;;9.57;100.00;102346.25;5021148;28;20029;-77
2022/08/07 06:09:06;;;;;;;5.28;2.72;;;;;;;9.62;100.00;102344.03;4980578;28;20064;-78
2022/08/07 06:11:33;;;;;;;7.30;3.33;;;;;;;9.85;100.00;102355.50;5029729;28;20061;-77
2022/08/07 06:13:58;;;;;;;6.22;3.28;;;;;;;10.29;100.00;102353.50;5005515;28;20095;-77
2022/08/07 06:16:26;;;;;;;11.15;3.63;;;;;;;10.61;100.00;102336.34;4992253;28;20021;-76
2022/08/07 06:18:52;;;;;;;12.50;3.10;;;;;;;10.95;100.00;102335.97;5014894;28;20120;-77
2022/08/07 06:21:19;;;;;;;10.15;3.65;;;;;;;11.11;100.00;102352.41;5000392;28;20495;-77
2022/08/07 06:23:44;;;;;;;1.92;1.48;;;;;;;11.04;100.00;102318.16;5052911;28;20665;-76
2022/08/07 06:26:12;;;;;;;13.73;3.70;;;;;;;11.08;100.00;102343.78;4987303;28;20045;-76
2022/08/07 06:28:51;;;;;;;17.13;3.78;;;;;;;11.08;100.00;102346.47;5011764;28;20505;-78
2022/08/07 06:31:17;;;;;;;16.05;3.50;;;;;;;11.17;100.00;102340.25;5023516;28;20064;-77
2022/08/07 06:33:45;;;;;;;8.10;3.40;;;;;;;11.21;100.00;102344.34;5026724;28;20037;-77
2022/08/07 06:36:10;;;;;;;6.05;2.80;;;;;;;11.29;100.00;102331.03;5008054;28;20115;-77
2022/08/07 06:38:36;;;;;;;13.77;3.50;;;;;;;11.68;100.00;102347.16;5017119;28;20419;-77
2022/08/07 06:41:06;;;;;;;6.32;3.75;;;;;;;12.15;100.00;102344.53;5004326;28;20080;-78
2022/08/07 06:43:34;;;;;;;13.95;3.72;;;;;;;12.37;100.00;102339.75;5014360;28;20128;-77
2022/08/07 06:46:01;;;;;;;7.38;3.20;;;;;;;12.31;100.00;102344.75;5007675;28;20076;-77
2022/08/07 06:48:27;;;;;;;8.13;4.10;;;;;;;12.22;100.00;102342.91;5021675;28;20021;-77
2022/08/07 06:51:05;;;;;;;9.05;2.83;;;;;;;11.98;100.00;102345.28;5004075;28;20040;-78
2022/08/07 06:53:34;;;;;;;5.72;2.72;;;;;;;11.75;100.00;102348.28;5019502;28;20510;-78
2022/08/07 06:56:00;;;;;;;6.47;3.10;;;;;;;12.07;100.00;102337.19;5020573;28;20033;-77
2022/08/07 06:58:26;;;;;;;12.23;4.13;;;;;;;12.73;100.00;102344.25;5003210;28;20037;-76
2022/08/07 07:00:52;;;;;;;6.13;3.30;;;;;;;12.81;100.00;102339.94;5019124;28;20106;-76
2022/08/07 07:03:18;;;;;;;13.35;3.47;;;;;;;12.79;100.00;102345.50;5006984;28;20437;-78
2022/08/07 07:05:47;;;;;;;5.82;3.03;;;;;;;12.88;100.00;102347.28;4998822;28;20038;-77
2022/08/07 07:08:13;;;;;;;11.15;3.70;;;;;;;12.84;100.00;102323.44;5006233;28;20037;-77
2022/08/07 07:10:39;;;;;;;9.35;3.58;;;;;;;13.00;100.00;102347.91;4998404;28;20048;-78
2022/08/07 07:13:16;;;;;;;7.35;3.65;;;;;;;13.28;100.00;102358.66;5013493;28;20049;-78
2022/08/07 07:15:45;;;;;;;4.78;3.30;;;;;;;13.33;100.00;102332.03;4990482;28;20057;-77
2022/08/07 07:18:30;;;;;;;6.95;3.80;;;;;;;13.31;100.00;102353.81;5027864;28;20037;-78
2022/08/07 07:20:58;;;;;;;8.57;3.30;;;;;;;13.60;100.00;102350.00;5001278;28;20597;-78
2022/08/07 07:23:24;;;;;;;5.47;3.30;;;;;;;13.92;100.00;102325.06;5010290;28;20060;-76
2022/08/07 07:25:51;;;;;;;5.25;3.28;;;;;;;14.36;100.00;102354.72;5013235;28;20108;-78
2022/08/07 07:28:24;;;;;;;6.45;3.85;;;;;;;14.46;100.00;102355.44;5005084;28;20041;-76
2022/08/07 07:30:57;;;;;;;6.13;3.70;;;;;;;14.52;100.00;102352.09;5005386;28;20088;-76
2022/08/07 07:33:23;;;;;;;7.75;4.20;;;;;;;14.62;100.00;102357.41;5017553;28;20053;-75
2022/08/07 07:35:50;;;;;;;7.65;3.63;;;;;;;14.73;100.00;102362.50;4991877;28;20110;-76
2022/08/07 07:38:21;;;;;;;6.82;3.63;;;;;;;15.17;100.00;102354.16;5051171;28;20047;-76
2022/08/07 07:40:48;;;;;;;7.45;3.50;;;;;;;15.86;100.00;102355.72;5009612;28;20129;-76
2022/08/07 07:43:15;;;;;;;6.70;3.50;;;;;;;15.57;100.00;102360.63;4984858;28;20497;-76
2022/08/07 07:45:41;;;;;;;4.55;3.28;;;;;;;15.37;100.00;102353.81;5017850;28;20045;-75
2022/08/07 07:48:12;;;;;;;5.53;3.53;;;;;;;15.13;100.00;102355.50;5009855;28;20030;-76
2022/08/07 07:50:38;;;;;;;8.35;3.80;;;;;;;15.05;100.00;102354.63;5009428;28;20033;-76
2022/08/07 07:53:06;;;;;;;7.18;4.35;;;;;;;15.02;100.00;102354.97;5010564;28;20037;-76
2022/08/07 07:55:33;;;;;;;7.53;4.40;;;;;;;15.05;100.00;102349.22;5007398;28;20095;-76
2022/08/07 07:57:59;;;;;;;6.13;4.18;;;;;;;15.18;100.00;102349.56;4986472;28;20199;-76
2022/08/07 08:00:26;;;;;;;6.43;3.50;;;;;;;15.28;100.00;102352.16;5005603;28;21856;-75
2022/08/07 08:02:55;;;;;;;9.63;4.68;;;;;;;15.05;100.00;102332.97;5004303;28;20061;-76
2022/08/07 08:05:25;;;;;;;7.68;3.58;;;;;;;14.97;100.00;102357.34;4995314;28;20028;-76
2022/08/07 08:07:51;;;;;;;9.05;4.20;;;;;;;15.00;100.00;102357.84;5021772;28;20464;-76
2022/08/07 08:10:18;;;;;;;9.13;4.20;;;;;;;15.29;100.00;102356.53;5008107;28;20043;-76
2022/08/07 08:12:45;;;;;;;4.97;2.58;;;;;;;15.58;100.00;102356.88;4991589;28;20067;-76
2022/08/07 08:15:11;;;;;;;9.48;5.50;;;;;;;15.57;100.00;102344.34;5016133;28;20041;-76
2022/08/07 08:17:37;;;;;;;9.48;4.80;;;;;;;15.79;100.00;102363.69;4998135;28;20537;-77
2022/08/07 08:20:07;;;;;;;8.70;4.75;;;;;;;16.08;100.00;102352.28;4972891;28;20037;-77
2022/08/07 08:28:17;;;;;;;8.80;4.25;;;;;;;16.31;100.00;102360.53;5010074;28;20031;-77
2022/08/07 08:30:44;;;;;;;6.85;3.42;;;;;;;16.12;100.00;102350.06;5004085;28;20116;-77
2022/08/07 08:33:17;;;;;;;8.10;4.25;;;;;;;16.09;100.00;102359.41;5004764;28;20034;-78
2022/08/07 08:35:47;;;;;;;7.20;4.40;;;;;;;16.26;100.00;102352.06;5017903;28;20128;-77
2022/08/07 08:38:14;;;;;;;8.52;4.35;;;;;;;16.45;100.00;102343.50;4997252;28;20106;-77
2022/08/07 08:40:45;;;;;;;8.63;4.40;;;;;;;16.69;100.00;102358.84;4995734;28;20529;-77
2022/08/07 08:43:18;;;;;;;9.35;4.63;;;;;;;16.80;100.00;102352.19;4981683;28;20040;-77
2022/08/07 08:45:48;;;;;;;;;;;;;;;17.00;100.00;102349.03;5001498;28;20108;-77
2022/08/07 08:48:29;;;;;;;8.65;4.70;;;;;;;17.41;100.00;102349.59;4991615;28;19924;-77
2022/08/07 08:51:00;;;;;;;10.40;4.95;;;;;;;17.79;97.89;102341.47;4988995;28;20124;-77
2022/08/07 08:53:31;;;;;;;9.73;4.72;;;;;;;18.32;95.01;102347.69;5024781;28;20037;-77
2022/08/07 08:56:02;;;;;;;8.07;4.38;;;;;;;18.68;91.59;102347.75;5009310;28;20073;-77
2022/08/07 08:58:55;;;;;;;9.23;4.90;;;;;;;19.12;91.04;102345.94;5009634;28;20025;-77
2022/08/07 09:01:30;;;;;;;8.30;5.20;;;;;;;19.39;85.99;102338.03;5010704;28;20025;-78
2022/08/07 09:04:35;;;;;;;8.75;4.70;;;;;;;19.60;82.65;102348.06;5029176;28;20034;-79
2022/08/07 09:07:10;;;;;;;8.13;4.25;;;;;;;19.78;82.86;102343.00;5006930;28;20087;-77
2022/08/07 09:09:59;;;;;;;8.10;4.43;;;;;;;19.63;82.21;102339.50;5008428;28;20030;-77
2022/08/07 09:12:28;;;;;;;7.72;4.05;;;;;;;19.22;81.40;102294.66;5029027;28;20080;-78
2022/08/07 09:15:18;;;;;;;8.68;4.47;;;;;;;19.40;81.23;102335.13;5026823;28;20038;-77
2022/08/07 09:18:14;;;;;;;7.22;4.30;;;;;;;19.43;82.54;102334.72;5020165;28;20029;-78
2022/08/07 09:21:02;;;;;;;9.73;4.30;;;;;;;19.14;80.74;102302.97;5011588;28;20065;-77
2022/08/07 09:23:43;;;;;;;9.00;4.40;;;;;;;19.32;81.34;102333.38;5009659;28;20028;-77
2022/08/07 09:26:17;;;;;;;9.45;4.20;;;;;;;19.37;80.54;102337.38;5008093;28;20115;-78
2022/08/07 09:28:47;;;;;;;9.52;4.25;;;;;;;19.50;78.98;102337.50;5014554;28;20040;-77
2022/08/07 09:31:23;;;;;;;9.82;4.55;;;;;;;19.58;77.91;102328.31;5015475;28;20379;-77
2022/08/07 09:34:04;;;;;;;11.07;4.03;;;;;;;19.68;75.73;102332.44;5031723;28;20029;-77
2022/08/07 09:36:42;;;;;;;9.25;3.75;;;;;;;19.68;75.42;102321.50;5031866;28;20463;-78
2022/08/07 09:39:26;;;;;;;8.20;4.57;;;;;;;19.81;75.27;102298.09;5011930;28;20084;-77
2022/08/07 09:42:11;;;;;;;10.82;3.92;;;;;;;21.43;67.71;102324.78;5035263;28;20478;-77
2022/08/07 09:44:48;;;;;;;7.97;3.65;;;;;;;22.14;66.48;102326.81;5031934;28;20060;-78
2022/08/07 09:48:03;;;;;;;5.95;4.30;;;;;;;22.79;62.30;102324.06;5012090;28;20399;-78
2022/08/07 09:50:50;;;;;;;7.88;4.35;;;;;;;25.43;56.27;102329.72;5014408;28;20090;-78
2022/08/07 09:53:19;;;;;;;10.35;4.57;;;;;;;26.00;50.86;102331.09;5028815;28;20108;-78
2022/08/07 09:55:44;;;;;;;9.57;4.07;;;;;;;25.76;49.61;102328.31;5010882;28;20140;-78
2022/08/07 09:58:37;;;;;;;8.27;3.70;;;;;;;25.21;49.67;102334.09;5025784;28;20108;-78
2022/08/07 10:01:03;;;;;;;8.45;3.78;;;;;;;26.32;48.41;102332.34;5029131;28;20033;-78
2022/08/07 10:03:40;;;;;;;8.30;3.45;;;;;;;26.26;46.77;102321.47;5033438;28;20041;-78
2022/08/07 10:06:15;;;;;;;6.65;3.03;;;;;;;26.55;45.84;102325.13;5030426;28;20030;-78
2022/08/07 10:09:06;;;;;;;9.40;3.45;;;;;;;26.21;45.67;102318.59;5019874;28;20024;-78
2022/08/07 10:12:04;;;;;;;5.33;3.87;;;;;;;25.00;47.98;102321.69;5008649;28;20482;-78
2022/08/07 10:15:04;;;;;;;6.88;4.05;;;;;;;23.46;52.14;102314.31;5030527;28;20270;-78
2022/08/07 10:17:45;;;;;;;7.60;4.45;;;;;;;22.44;56.66;102323.56;5032785;28;20017;-78
2022/08/07 10:20:21;;;;;;;10.75;3.80;;;;;;;22.19;56.79;102321.56;5016153;28;20045;-77
2022/08/07 10:22:59;;;;;;;11.30;4.03;;;;;;;22.95;53.53;102318.06;5027532;28;20033;-77
2022/08/07 10:25:43;;;;;;;6.93;3.97;;;;;;;23.15;52.96;102322.59;5012497;28;20431;-79
2022/08/07 10:28:30;;;;;;;17.35;4.57;;;;;;;22.48;54.66;102322.94;5023429;28;20029;-78
2022/08/07 10:31:02;;;;;;;9.60;4.00;;;;;;;22.53;55.46;102325.03;5011126;28;20064;-78
2022/08/07 10:33:49;;;;;;;10.70;4.13;;;;;;;22.52;55.34;102324.19;5012444;28;20055;-78
2022/08/07 10:36:38;;;;;;;10.00;4.30;;;;;;;22.79;55.07;102311.19;5015337;28;20051;-78
2022/08/07 10:39:34;;;;;;;7.88;5.25;;;;;;;23.65;52.61;102323.44;5003562;28;20037;-78
2022/08/07 10:42:11;;;;;;;11.52;5.03;;;;;;;24.83;49.53;102320.69;5014105;28;20162;-79
2022/08/07 10:44:51;;;;;;;7.20;3.72;;;;;;;24.77;48.69;102311.47;5022425;28;20104;-79
2022/08/07 10:47:40;;;;;;;8.45;3.95;;;;;;;24.95;48.70;102311.41;4997259;28;20029;-79
2022/08/07 10:50:27;;;;;;;12.60;3.80;;;;;;;24.57;47.88;102315.31;5031448;28;20478;-78
2022/08/07 10:53:10;;;;;;;8.65;3.85;;;;;;;25.41;46.79;102320.03;5025870;28;20540;-79
2022/08/07 10:56:03;;;;;;;8.57;4.18;;;;;;;25.52;45.24;102313.69;5024040;28;20033;-78
2022/08/07 10:58:43;;;;;;;7.55;3.70;;;;;;;24.99;45.93;102293.34;4998349;28;20033;-79
2022/08/07 11:01:17;;;;;;;7.35;3.97;;;;;;;24.76;47.58;102318.84;5032524;28;20025;-78
2022/08/07 11:04:02;;;;;;;13.02;3.92;;;;;;;24.55;46.50;102317.44;5012273;28;20130;-78
2022/08/07 11:06:40;;;;;;;6.28;4.00;;;;;;;24.29;47.11;102306.75;4997197;28;20371;-78
2022/08/07 11:09:17;;;;;;;7.68;3.58;;;;;;;27.35;40.30;102315.00;5013257;28;20033;-79
2022/08/07 11:11:48;;;;;;;8.00;3.75;;;;;;;28.55;37.62;102309.00;5011524;28;20049;-79
2022/08/07 11:14:23;;;;;;;5.40;3.00;;;;;;;27.22;37.85;102307.91;5007372;28;20042;-79
2022/08/07 11:16:57;;;;;;;7.43;3.30;;;;;;;25.97;41.92;102298.50;5014545;28;20025;-78
2022/08/07 11:19:30;;;;;;;6.03;3.55;;;;;;;26.38;41.15;102307.63;4995823;28;20068;-78
2022/08/07 11:22:10;;;;;;;7.20;3.70;;;;;;;28.31;37.46;102283.50;5014127;28;20025;-79
2022/08/07 11:24:57;;;;;;;8.98;4.43;;;;;;;29.92;34.66;102298.28;5022977;28;20083;-79
2022/08/07 11:27:34;;;;;;;11.82;5.10;;;;;;;28.77;35.84;102295.97;5026008;28;20497;-78
2022/08/07 11:30:06;;;;;;;7.20;2.80;;;;;;;29.52;34.54;102294.13;5014682;28;20022;-79
2022/08/07 11:32:38;;;;;;;5.60;3.10;;;;;;;27.53;37.16;102266.97;5006127;28;20037;-79
2022/08/07 11:35:32;;;;;;;9.97;2.53;;;;;;;26.91;38.37;102300.97;5031981;28;20025;-78
2022/08/07 11:38:16;;;;;;;5.43;2.85;;;;;;;26.00;40.42;102268.53;5028029;28;20528;-79
2022/08/07 11:41:05;;;;;;;7.93;3.30;;;;;;;25.95;41.29;102284.94;4997807;28;20533;-79
2022/08/07 11:43:40;;;;;;;6.03;2.90;;;;;;;26.84;40.40;102283.75;5024513;28;20150;-79